Historyczne dane pomiarowe

Dodano dane terminowe – wersja testowa.

Dane z okresu 1951-2019

Wersja bazy: 1.34 [2019-03-16, lista zmian], aktualizacja planowana na 2019-04-15

Dane meteo z obszaru Polski uzyskane na podstawie danych udostępnionych przez Instytut Meteorologii i Gospodarki Wodnej – Państwowy Instytut Badawczy.

 

Wybierz Datę:    

       

TemperaturaWilgotnośćZachmurzenieWiatrCiśnienieWidzialnośćZjawiska
 Data    tng td wb rh cc ccl cl cm ch dir g1 g2 mslp ppp      
1994-06-28 00:00:00 18.5--- 17.3 17.793wxwxwx0wx--1021.6 981.4 0.0---wx
1994-06-28 01:00:00 17.8--- 16.5 17.092wxwx0wx--1021.6 981.3----wx
1994-06-28 02:00:00 17.1--- 15.8 16.392wxwx0wx--1021.7 981.3----wx
1994-06-28 03:00:00 16.8--- 15.4 15.991wxwxwx0wx--1022.0 981.5----wx
1994-06-28 04:00:00 16.3--- 15.2 15.693wxwxwx0wx--1022.5 981.9----wx
1994-06-28 05:00:00 18.9--- 17.2 17.890wxwxwx0wx--1022.4 982.2----wx
1994-06-28 06:00:00 21.4--- 18.2 19.382wxwxwx0wx--1021.9 982.0 0.0---wx
1994-06-28 07:00:00 23.7--- 18.1 20.071wxwxwx2wx--1021.5 982.0----wx
1994-06-28 08:00:00 25.7--- 17.9 20.562wxwxwx2wx--1020.9 981.6----wx
1994-06-28 09:00:00 27.0--- 18.6 21.360wxwxwx2wx--1020.7 981.6----wx
1994-06-28 10:00:00 28.0--- 19.2 22.059wxwxwx1wx--1020.2 981.3----wx
1994-06-28 11:00:00 28.7--- 17.8 21.452wxwxwx2wx--1020.0 981.2----wx
1994-06-28 12:00:00 29.8--- 18.8 22.352wxwxwxwx2wx--1019.5 980.8 0.0---wx
1994-06-28 13:00:00 30.6--- 19.6 23.052wxwxwxwx3wx--1018.9 980.3----wx
1994-06-28 14:00:00 30.2--- 19.1 22.652wxwxwxwx2wx--1018.5 979.9----wx
1994-06-28 15:00:00 30.3--- 19.1 22.651wxwxwxwx2wx--1018.4 979.8----wx
1994-06-28 16:00:00 29.5--- 19.3 22.554wxwxwx2wx--1018.4 979.7----wx
1994-06-28 17:00:00 28.8--- 19.1 22.256wxwxwx1wx--1018.3 979.5----wx
1994-06-28 18:00:00 27.5--- 19.0 21.760wxwxwx1wx--1018.4 979.5 0.0---wx
1994-06-28 19:00:00 25.2--- 19.3 21.270wxwxwxwx1wx--1018.8 979.6----wx
1994-06-28 20:00:00 23.1--- 18.9 20.377wxwxwxwx1wx--1019.3 979.8----wx
1994-06-28 21:00:00 21.5--- 18.5 19.583wxwxwxwx1wx--1019.5 979.7----wx
1994-06-28 22:00:00 23.2--- 19.8 20.981wxwxwxwx1wx--1018.8 979.3----wx
1994-06-28 23:00:00 23.1--- 18.8 20.277wxwxwxwx2wx--1018.8 979.3----wx

 

Źródłem pochodzenia danych jest Instytut Meteorologii i Gospodarki Wodnej – Państwowy Instytut Badawczy. Dane Instytutu Meteorologii i Gospodarki Wodnej – Państwowego Instytutu Badawczego zostały przetworzone.

Dane źródłowe można odnaleźć na stronie https://dane.imgw.pl